sensor_id;sensor_type;location;lat;lon;timestamp;P1;durP1;ratioP1;P2;durP2;ratioP2
7997;SDS011;4044;49.814;7.828;2022-08-04T00:00:08;2.92;;;2.72;;
7997;SDS011;4044;49.814;7.828;2022-08-04T00:05:11;3.22;;;2.92;;
7997;SDS011;4044;49.814;7.828;2022-08-04T00:07:48;3.10;;;2.80;;
7997;SDS011;4044;49.814;7.828;2022-08-04T00:10:23;3.45;;;3.00;;
7997;SDS011;4044;49.814;7.828;2022-08-04T00:12:52;3.45;;;3.00;;
7997;SDS011;4044;49.814;7.828;2022-08-04T00:15:19;3.10;;;2.90;;
7997;SDS011;4044;49.814;7.828;2022-08-04T00:17:58;3.03;;;2.83;;
7997;SDS011;4044;49.814;7.828;2022-08-04T00:20:31;3.35;;;3.00;;
7997;SDS011;4044;49.814;7.828;2022-08-04T00:22:58;4.72;;;3.28;;
7997;SDS011;4044;49.814;7.828;2022-08-04T00:25:25;3.30;;;3.00;;
7997;SDS011;4044;49.814;7.828;2022-08-04T00:27:51;3.45;;;3.15;;
7997;SDS011;4044;49.814;7.828;2022-08-04T00:30:18;3.33;;;3.05;;
7997;SDS011;4044;49.814;7.828;2022-08-04T00:32:44;4.18;;;3.20;;
7997;SDS011;4044;49.814;7.828;2022-08-04T00:35:14;3.30;;;3.10;;
7997;SDS011;4044;49.814;7.828;2022-08-04T00:37:42;3.72;;;3.40;;
7997;SDS011;4044;49.814;7.828;2022-08-04T00:40:21;3.50;;;3.13;;
7997;SDS011;4044;49.814;7.828;2022-08-04T00:43:12;4.85;;;3.35;;
7997;SDS011;4044;49.814;7.828;2022-08-04T00:46:05;3.50;;;3.30;;
7997;SDS011;4044;49.814;7.828;2022-08-04T00:48:55;4.00;;;3.15;;
7997;SDS011;4044;49.814;7.828;2022-08-04T00:51:46;3.97;;;2.80;;
7997;SDS011;4044;49.814;7.828;2022-08-04T00:54:29;3.28;;;3.08;;
7997;SDS011;4044;49.814;7.828;2022-08-04T01:05:20;3.65;;;3.33;;
7997;SDS011;4044;49.814;7.828;2022-08-04T01:16:07;3.40;;;3.15;;
7997;SDS011;4044;49.814;7.828;2022-08-04T01:29:51;3.17;;;2.97;;
7997;SDS011;4044;49.814;7.828;2022-08-04T01:32:20;3.28;;;3.00;;
7997;SDS011;4044;49.814;7.828;2022-08-04T01:34:55;3.65;;;3.35;;
7997;SDS011;4044;49.814;7.828;2022-08-04T01:40:36;5.07;;;3.42;;
7997;SDS011;4044;49.814;7.828;2022-08-04T01:43:03;3.75;;;3.40;;
7997;SDS011;4044;49.814;7.828;2022-08-04T01:45:29;3.47;;;3.17;;
7997;SDS011;4044;49.814;7.828;2022-08-04T01:47:55;3.83;;;3.53;;
7997;SDS011;4044;49.814;7.828;2022-08-04T01:50:22;4.85;;;3.47;;
7997;SDS011;4044;49.814;7.828;2022-08-04T01:52:51;4.90;;;3.40;;
7997;SDS011;4044;49.814;7.828;2022-08-04T01:55:17;3.47;;;3.15;;
7997;SDS011;4044;49.814;7.828;2022-08-04T01:57:50;4.05;;;3.70;;
7997;SDS011;4044;49.814;7.828;2022-08-04T02:00:25;3.40;;;3.20;;
7997;SDS011;4044;49.814;7.828;2022-08-04T02:02:53;3.55;;;3.30;;
7997;SDS011;4044;49.814;7.828;2022-08-04T02:05:20;4.38;;;3.97;;
7997;SDS011;4044;49.814;7.828;2022-08-04T02:10:52;3.42;;;3.15;;
7997;SDS011;4044;49.814;7.828;2022-08-04T02:13:32;3.58;;;3.28;;
7997;SDS011;4044;49.814;7.828;2022-08-04T02:16:09;5.05;;;3.35;;
7997;SDS011;4044;49.814;7.828;2022-08-04T02:18:47;4.82;;;3.45;;
7997;SDS011;4044;49.814;7.828;2022-08-04T02:21:24;4.55;;;3.45;;
7997;SDS011;4044;49.814;7.828;2022-08-04T02:23:51;4.15;;;3.80;;
7997;SDS011;4044;49.814;7.828;2022-08-04T02:26:23;3.88;;;3.58;;
7997;SDS011;4044;49.814;7.828;2022-08-04T02:28:59;3.67;;;3.47;;
7997;SDS011;4044;49.814;7.828;2022-08-04T02:31:38;3.80;;;3.60;;
7997;SDS011;4044;49.814;7.828;2022-08-04T02:36:52;4.05;;;3.58;;
7997;SDS011;4044;49.814;7.828;2022-08-04T02:39:20;4.10;;;3.60;;
7997;SDS011;4044;49.814;7.828;2022-08-04T02:41:49;4.13;;;3.70;;
7997;SDS011;4044;49.814;7.828;2022-08-04T02:44:20;3.53;;;3.30;;
7997;SDS011;4044;49.814;7.828;2022-08-04T02:46:47;3.88;;;3.50;;
7997;SDS011;4044;49.814;7.828;2022-08-04T02:49:16;3.70;;;3.50;;
7997;SDS011;4044;49.814;7.828;2022-08-04T02:51:48;3.90;;;3.60;;
7997;SDS011;4044;49.814;7.828;2022-08-04T02:54:16;4.00;;;3.65;;
7997;SDS011;4044;49.814;7.828;2022-08-04T02:56:44;4.32;;;3.70;;
7997;SDS011;4044;49.814;7.828;2022-08-04T02:59:11;3.40;;;3.22;;
7997;SDS011;4044;49.814;7.828;2022-08-04T03:01:38;3.85;;;3.55;;
7997;SDS011;4044;49.814;7.828;2022-08-04T03:04:25;3.85;;;3.38;;
7997;SDS011;4044;49.814;7.828;2022-08-04T03:19:23;3.88;;;3.55;;
7997;SDS011;4044;49.814;7.828;2022-08-04T03:30:17;3.80;;;3.60;;
7997;SDS011;4044;49.814;7.828;2022-08-04T03:41:14;4.03;;;3.72;;
7997;SDS011;4044;49.814;7.828;2022-08-04T03:44:15;3.75;;;3.55;;
7997;SDS011;4044;49.814;7.828;2022-08-04T03:49:28;4.63;;;3.70;;
7997;SDS011;4044;49.814;7.828;2022-08-04T04:01:03;4.45;;;3.90;;
7997;SDS011;4044;49.814;7.828;2022-08-04T04:23:56;4.88;;;3.45;;
7997;SDS011;4044;49.814;7.828;2022-08-04T04:37:52;4.22;;;3.90;;
7997;SDS011;4044;49.814;7.828;2022-08-04T04:43:25;4.10;;;3.80;;
7997;SDS011;4044;49.814;7.828;2022-08-04T04:46:12;4.90;;;3.97;;
7997;SDS011;4044;49.814;7.828;2022-08-04T04:48:57;4.53;;;4.13;;
7997;SDS011;4044;49.814;7.828;2022-08-04T04:51:35;4.25;;;3.90;;
7997;SDS011;4044;49.814;7.828;2022-08-04T04:56:52;8.77;;;4.25;;
7997;SDS011;4044;49.814;7.828;2022-08-04T04:59:41;5.68;;;3.70;;
7997;SDS011;4044;49.814;7.828;2022-08-04T05:08:09;21.98;;;5.50;;
7997;SDS011;4044;49.814;7.828;2022-08-04T05:10:50;29.40;;;5.30;;
7997;SDS011;4044;49.814;7.828;2022-08-04T05:16:16;39.90;;;7.90;;
7997;SDS011;4044;49.814;7.828;2022-08-04T05:18:51;31.50;;;7.40;;
7997;SDS011;4044;49.814;7.828;2022-08-04T05:21:41;23.52;;;5.10;;
7997;SDS011;4044;49.814;7.828;2022-08-04T05:24:18;23.20;;;5.07;;
7997;SDS011;4044;49.814;7.828;2022-08-04T05:26:47;11.45;;;4.85;;
7997;SDS011;4044;49.814;7.828;2022-08-04T05:29:22;18.30;;;5.07;;
7997;SDS011;4044;49.814;7.828;2022-08-04T05:31:53;67.53;;;9.18;;
7997;SDS011;4044;49.814;7.828;2022-08-04T05:34:23;123.63;;;14.30;;
7997;SDS011;4044;49.814;7.828;2022-08-04T05:37:00;98.07;;;12.50;;
7997;SDS011;4044;49.814;7.828;2022-08-04T05:39:32;126.45;;;15.85;;
7997;SDS011;4044;49.814;7.828;2022-08-04T05:42:02;108.97;;;13.77;;
7997;SDS011;4044;49.814;7.828;2022-08-04T05:44:29;56.75;;;9.15;;
7997;SDS011;4044;49.814;7.828;2022-08-04T05:46:57;37.22;;;6.80;;
7997;SDS011;4044;49.814;7.828;2022-08-04T05:49:24;74.50;;;8.90;;
7997;SDS011;4044;49.814;7.828;2022-08-04T05:51:51;35.95;;;6.47;;
7997;SDS011;4044;49.814;7.828;2022-08-04T05:54:25;45.88;;;7.10;;
7997;SDS011;4044;49.814;7.828;2022-08-04T05:56:52;23.67;;;5.05;;
7997;SDS011;4044;49.814;7.828;2022-08-04T05:59:20;14.60;;;5.22;;
7997;SDS011;4044;49.814;7.828;2022-08-04T06:01:49;13.73;;;4.43;;
7997;SDS011;4044;49.814;7.828;2022-08-04T06:04:15;9.40;;;3.92;;
7997;SDS011;4044;49.814;7.828;2022-08-04T06:06:44;14.27;;;4.03;;
7997;SDS011;4044;49.814;7.828;2022-08-04T06:09:10;11.73;;;4.70;;
7997;SDS011;4044;49.814;7.828;2022-08-04T06:11:36;5.68;;;4.03;;
7997;SDS011;4044;49.814;7.828;2022-08-04T06:14:04;6.13;;;3.72;;
7997;SDS011;4044;49.814;7.828;2022-08-04T06:16:37;9.77;;;4.22;;
7997;SDS011;4044;49.814;7.828;2022-08-04T06:19:07;7.63;;;3.95;;
7997;SDS011;4044;49.814;7.828;2022-08-04T06:21:34;10.80;;;4.22;;
7997;SDS011;4044;49.814;7.828;2022-08-04T06:24:03;18.67;;;5.00;;
7997;SDS011;4044;49.814;7.828;2022-08-04T06:26:31;15.63;;;4.75;;
7997;SDS011;4044;49.814;7.828;2022-08-04T06:28:58;17.80;;;5.13;;
7997;SDS011;4044;49.814;7.828;2022-08-04T06:31:25;23.83;;;5.15;;
7997;SDS011;4044;49.814;7.828;2022-08-04T06:34:13;16.42;;;4.18;;
7997;SDS011;4044;49.814;7.828;2022-08-04T06:36:40;11.27;;;4.70;;
7997;SDS011;4044;49.814;7.828;2022-08-04T06:39:07;19.63;;;4.88;;
7997;SDS011;4044;49.814;7.828;2022-08-04T06:41:33;22.33;;;5.03;;
7997;SDS011;4044;49.814;7.828;2022-08-04T06:44:04;18.17;;;4.45;;
7997;SDS011;4044;49.814;7.828;2022-08-04T06:46:33;11.57;;;4.20;;
7997;SDS011;4044;49.814;7.828;2022-08-04T06:49:00;12.07;;;4.20;;
7997;SDS011;4044;49.814;7.828;2022-08-04T06:51:27;10.63;;;4.57;;
7997;SDS011;4044;49.814;7.828;2022-08-04T06:53:55;8.70;;;3.88;;
7997;SDS011;4044;49.814;7.828;2022-08-04T06:56:21;7.53;;;3.30;;
7997;SDS011;4044;49.814;7.828;2022-08-04T06:58:49;7.65;;;3.85;;
7997;SDS011;4044;49.814;7.828;2022-08-04T07:01:16;13.57;;;3.80;;
7997;SDS011;4044;49.814;7.828;2022-08-04T07:03:44;11.07;;;4.10;;
7997;SDS011;4044;49.814;7.828;2022-08-04T07:06:10;8.23;;;3.67;;
7997;SDS011;4044;49.814;7.828;2022-08-04T07:08:36;10.20;;;3.83;;
7997;SDS011;4044;49.814;7.828;2022-08-04T07:11:03;13.18;;;3.95;;
7997;SDS011;4044;49.814;7.828;2022-08-04T07:13:29;7.70;;;3.78;;
7997;SDS011;4044;49.814;7.828;2022-08-04T07:15:56;13.48;;;3.78;;
7997;SDS011;4044;49.814;7.828;2022-08-04T07:18:22;7.60;;;3.80;;
7997;SDS011;4044;49.814;7.828;2022-08-04T07:20:48;7.88;;;3.53;;
7997;SDS011;4044;49.814;7.828;2022-08-04T07:23:14;8.45;;;3.80;;
7997;SDS011;4044;49.814;7.828;2022-08-04T07:25:52;9.75;;;3.58;;
7997;SDS011;4044;49.814;7.828;2022-08-04T07:28:20;6.45;;;3.20;;
7997;SDS011;4044;49.814;7.828;2022-08-04T07:30:47;9.07;;;3.90;;
7997;SDS011;4044;49.814;7.828;2022-08-04T07:33:14;10.35;;;3.60;;
7997;SDS011;4044;49.814;7.828;2022-08-04T07:35:41;7.85;;;3.65;;
7997;SDS011;4044;49.814;7.828;2022-08-04T07:38:07;8.73;;;3.60;;
7997;SDS011;4044;49.814;7.828;2022-08-04T07:40:35;7.72;;;3.60;;
7997;SDS011;4044;49.814;7.828;2022-08-04T07:43:01;8.10;;;3.50;;
7997;SDS011;4044;49.814;7.828;2022-08-04T07:45:27;7.63;;;3.60;;
7997;SDS011;4044;49.814;7.828;2022-08-04T07:47:52;13.52;;;3.47;;
7997;SDS011;4044;49.814;7.828;2022-08-04T07:50:18;7.30;;;3.65;;
7997;SDS011;4044;49.814;7.828;2022-08-04T07:52:44;5.10;;;3.55;;
7997;SDS011;4044;49.814;7.828;2022-08-04T07:55:10;12.82;;;4.25;;
7997;SDS011;4044;49.814;7.828;2022-08-04T07:57:37;11.77;;;3.97;;
7997;SDS011;4044;49.814;7.828;2022-08-04T08:00:03;10.85;;;3.45;;
7997;SDS011;4044;49.814;7.828;2022-08-04T08:02:29;10.68;;;4.00;;
7997;SDS011;4044;49.814;7.828;2022-08-04T08:04:57;11.02;;;4.07;;
7997;SDS011;4044;49.814;7.828;2022-08-04T08:07:23;6.55;;;3.67;;
7997;SDS011;4044;49.814;7.828;2022-08-04T08:09:49;8.35;;;3.50;;
7997;SDS011;4044;49.814;7.828;2022-08-04T08:12:14;8.10;;;3.45;;
7997;SDS011;4044;49.814;7.828;2022-08-04T08:14:40;6.90;;;3.67;;
7997;SDS011;4044;49.814;7.828;2022-08-04T08:17:06;6.65;;;4.10;;
7997;SDS011;4044;49.814;7.828;2022-08-04T08:19:32;7.65;;;3.75;;
7997;SDS011;4044;49.814;7.828;2022-08-04T08:21:59;14.15;;;3.95;;
7997;SDS011;4044;49.814;7.828;2022-08-04T08:24:29;16.50;;;4.40;;
7997;SDS011;4044;49.814;7.828;2022-08-04T08:26:56;13.65;;;4.13;;
7997;SDS011;4044;49.814;7.828;2022-08-04T08:29:23;18.33;;;4.03;;
7997;SDS011;4044;49.814;7.828;2022-08-04T08:31:50;12.32;;;4.20;;
7997;SDS011;4044;49.814;7.828;2022-08-04T08:34:15;14.95;;;4.00;;
7997;SDS011;4044;49.814;7.828;2022-08-04T08:36:45;17.45;;;4.30;;
7997;SDS011;4044;49.814;7.828;2022-08-04T08:39:27;22.08;;;4.28;;
7997;SDS011;4044;49.814;7.828;2022-08-04T08:47:42;17.13;;;4.15;;
7997;SDS011;4044;49.814;7.828;2022-08-04T09:05:39;20.25;;;4.65;;
7997;SDS011;4044;49.814;7.828;2022-08-04T09:11:54;15.80;;;4.18;;
7997;SDS011;4044;49.814;7.828;2022-08-04T09:13:55;12.15;;;3.95;;
7997;SDS011;4044;49.814;7.828;2022-08-04T09:16:34;14.27;;;4.22;;
7997;SDS011;4044;49.814;7.828;2022-08-04T09:19:26;13.80;;;4.25;;
7997;SDS011;4044;49.814;7.828;2022-08-04T09:22:02;9.82;;;3.60;;
7997;SDS011;4044;49.814;7.828;2022-08-04T09:24:49;4.60;;;3.22;;
7997;SDS011;4044;49.814;7.828;2022-08-04T09:30:30;4.38;;;3.10;;
7997;SDS011;4044;49.814;7.828;2022-08-04T09:33:15;7.70;;;3.17;;
7997;SDS011;4044;49.814;7.828;2022-08-04T09:36:06;4.88;;;2.80;;
7997;SDS011;4044;49.814;7.828;2022-08-04T09:38:41;3.55;;;2.90;;
7997;SDS011;4044;49.814;7.828;2022-08-04T09:44:10;4.68;;;2.95;;
7997;SDS011;4044;49.814;7.828;2022-08-04T09:46:59;4.55;;;2.90;;
7997;SDS011;4044;49.814;7.828;2022-08-04T09:49:35;4.18;;;2.95;;
7997;SDS011;4044;49.814;7.828;2022-08-04T09:55:17;2.95;;;2.45;;
7997;SDS011;4044;49.814;7.828;2022-08-04T09:58:06;4.35;;;2.75;;
7997;SDS011;4044;49.814;7.828;2022-08-04T10:00:36;2.90;;;2.60;;
7997;SDS011;4044;49.814;7.828;2022-08-04T10:03:09;5.80;;;2.80;;
7997;SDS011;4044;49.814;7.828;2022-08-04T10:05:42;3.80;;;2.83;;
7997;SDS011;4044;49.814;7.828;2022-08-04T10:11:23;3.05;;;2.85;;
7997;SDS011;4044;49.814;7.828;2022-08-04T10:28:45;4.05;;;2.53;;
7997;SDS011;4044;49.814;7.828;2022-08-04T10:31:21;3.45;;;2.63;;
7997;SDS011;4044;49.814;7.828;2022-08-04T10:34:26;2.38;;;2.20;;
7997;SDS011;4044;49.814;7.828;2022-08-04T10:39:38;4.57;;;2.58;;
7997;SDS011;4044;49.814;7.828;2022-08-04T10:42:30;2.20;;;2.10;;
7997;SDS011;4044;49.814;7.828;2022-08-04T10:47:38;2.40;;;2.20;;
7997;SDS011;4044;49.814;7.828;2022-08-04T10:50:09;3.13;;;1.80;;
7997;SDS011;4044;49.814;7.828;2022-08-04T10:52:43;3.83;;;1.90;;
7997;SDS011;4044;49.814;7.828;2022-08-04T10:55:19;1.90;;;1.73;;
7997;SDS011;4044;49.814;7.828;2022-08-04T10:57:53;1.88;;;1.70;;
7997;SDS011;4044;49.814;7.828;2022-08-04T11:00:24;1.95;;;1.80;;
7997;SDS011;4044;49.814;7.828;2022-08-04T11:02:54;1.98;;;1.88;;
7997;SDS011;4044;49.814;7.828;2022-08-04T11:08:11;1.77;;;1.67;;
7997;SDS011;4044;49.814;7.828;2022-08-04T11:11:07;9.27;;;2.03;;
7997;SDS011;4044;49.814;7.828;2022-08-04T11:16:38;2.03;;;1.80;;
7997;SDS011;4044;49.814;7.828;2022-08-04T11:24:51;2.15;;;1.92;;
7997;SDS011;4044;49.814;7.828;2022-08-04T11:30:11;2.63;;;2.00;;
7997;SDS011;4044;49.814;7.828;2022-08-04T11:35:10;1.80;;;1.70;;
7997;SDS011;4044;49.814;7.828;2022-08-04T11:37:52;3.42;;;2.92;;
7997;SDS011;4044;49.814;7.828;2022-08-04T11:40:35;9.15;;;2.75;;
7997;SDS011;4044;49.814;7.828;2022-08-04T11:43:07;5.68;;;2.45;;
7997;SDS011;4044;49.814;7.828;2022-08-04T11:45:40;4.97;;;2.10;;
7997;SDS011;4044;49.814;7.828;2022-08-04T11:48:15;10.27;;;2.60;;
7997;SDS011;4044;49.814;7.828;2022-08-04T11:50:44;2.63;;;2.42;;
7997;SDS011;4044;49.814;7.828;2022-08-04T11:53:15;7.07;;;2.20;;
7997;SDS011;4044;49.814;7.828;2022-08-04T11:55:45;4.50;;;1.98;;
7997;SDS011;4044;49.814;7.828;2022-08-04T11:58:16;2.35;;;1.90;;
7997;SDS011;4044;49.814;7.828;2022-08-04T12:09:21;2.03;;;1.90;;
7997;SDS011;4044;49.814;7.828;2022-08-04T12:17:39;6.57;;;2.35;;
7997;SDS011;4044;49.814;7.828;2022-08-04T12:20:10;1.80;;;1.70;;
7997;SDS011;4044;49.814;7.828;2022-08-04T12:22:46;2.15;;;2.05;;
7997;SDS011;4044;49.814;7.828;2022-08-04T12:25:23;2.35;;;1.90;;
7997;SDS011;4044;49.814;7.828;2022-08-04T12:27:55;2.53;;;2.33;;
7997;SDS011;4044;49.814;7.828;2022-08-04T12:30:24;2.10;;;2.00;;
7997;SDS011;4044;49.814;7.828;2022-08-04T12:32:57;2.40;;;2.03;;
7997;SDS011;4044;49.814;7.828;2022-08-04T12:35:34;3.05;;;2.08;;
7997;SDS011;4044;49.814;7.828;2022-08-04T12:38:05;2.25;;;2.00;;
7997;SDS011;4044;49.814;7.828;2022-08-04T12:43:07;5.78;;;2.97;;
7997;SDS011;4044;49.814;7.828;2022-08-04T12:45:41;4.03;;;2.20;;
7997;SDS011;4044;49.814;7.828;2022-08-04T12:48:13;3.00;;;2.30;;
7997;SDS011;4044;49.814;7.828;2022-08-04T12:50:41;3.20;;;2.20;;
7997;SDS011;4044;49.814;7.828;2022-08-04T12:53:15;2.50;;;2.40;;
7997;SDS011;4044;49.814;7.828;2022-08-04T12:55:44;3.15;;;2.83;;
7997;SDS011;4044;49.814;7.828;2022-08-04T12:58:20;3.65;;;2.67;;
7997;SDS011;4044;49.814;7.828;2022-08-04T13:00:52;2.65;;;2.45;;
7997;SDS011;4044;49.814;7.828;2022-08-04T13:03:20;2.45;;;2.30;;
7997;SDS011;4044;49.814;7.828;2022-08-04T13:05:54;2.60;;;2.40;;
7997;SDS011;4044;49.814;7.828;2022-08-04T13:08:20;2.38;;;2.28;;
7997;SDS011;4044;49.814;7.828;2022-08-04T13:10:47;2.67;;;2.42;;
7997;SDS011;4044;49.814;7.828;2022-08-04T13:13:20;2.75;;;2.63;;
7997;SDS011;4044;49.814;7.828;2022-08-04T13:15:59;2.70;;;2.50;;
7997;SDS011;4044;49.814;7.828;2022-08-04T13:18:28;2.50;;;2.40;;
7997;SDS011;4044;49.814;7.828;2022-08-04T13:20:55;3.13;;;2.40;;
7997;SDS011;4044;49.814;7.828;2022-08-04T13:23:33;1.98;;;1.98;;
7997;SDS011;4044;49.814;7.828;2022-08-04T13:26:00;2.30;;;2.15;;
7997;SDS011;4044;49.814;7.828;2022-08-04T13:28:28;2.78;;;2.20;;
7997;SDS011;4044;49.814;7.828;2022-08-04T13:30:58;2.05;;;1.95;;
7997;SDS011;4044;49.814;7.828;2022-08-04T13:33:29;2.17;;;1.95;;
7997;SDS011;4044;49.814;7.828;2022-08-04T13:35:57;3.00;;;1.95;;
7997;SDS011;4044;49.814;7.828;2022-08-04T13:38:24;1.83;;;1.70;;
7997;SDS011;4044;49.814;7.828;2022-08-04T13:40:52;3.40;;;2.22;;
7997;SDS011;4044;49.814;7.828;2022-08-04T13:43:25;2.95;;;1.90;;
7997;SDS011;4044;49.814;7.828;2022-08-04T13:46:03;2.65;;;1.85;;
7997;SDS011;4044;49.814;7.828;2022-08-04T13:48:31;2.03;;;1.85;;
7997;SDS011;4044;49.814;7.828;2022-08-04T13:51:00;2.33;;;2.10;;
7997;SDS011;4044;49.814;7.828;2022-08-04T13:53:29;1.92;;;1.80;;
7997;SDS011;4044;49.814;7.828;2022-08-04T13:55:59;2.17;;;1.98;;
7997;SDS011;4044;49.814;7.828;2022-08-04T13:58:27;2.10;;;1.85;;
7997;SDS011;4044;49.814;7.828;2022-08-04T14:01:05;1.80;;;1.80;;
7997;SDS011;4044;49.814;7.828;2022-08-04T14:03:39;2.15;;;2.00;;
7997;SDS011;4044;49.814;7.828;2022-08-04T14:06:23;2.08;;;1.92;;
7997;SDS011;4044;49.814;7.828;2022-08-04T14:08:54;3.60;;;1.83;;
7997;SDS011;4044;49.814;7.828;2022-08-04T14:11:35;2.05;;;1.95;;
7997;SDS011;4044;49.814;7.828;2022-08-04T14:14:15;2.00;;;1.90;;
7997;SDS011;4044;49.814;7.828;2022-08-04T14:17:00;3.30;;;2.00;;
7997;SDS011;4044;49.814;7.828;2022-08-04T14:27:47;3.78;;;2.33;;
7997;SDS011;4044;49.814;7.828;2022-08-04T14:32:58;2.38;;;2.17;;
7997;SDS011;4044;49.814;7.828;2022-08-04T14:35:34;2.40;;;2.20;;
7997;SDS011;4044;49.814;7.828;2022-08-04T14:38:06;5.78;;;2.38;;
7997;SDS011;4044;49.814;7.828;2022-08-04T14:40:34;2.50;;;2.30;;
7997;SDS011;4044;49.814;7.828;2022-08-04T14:43:01;2.28;;;2.10;;
7997;SDS011;4044;49.814;7.828;2022-08-04T14:45:38;4.18;;;2.00;;
7997;SDS011;4044;49.814;7.828;2022-08-04T14:48:13;3.55;;;2.17;;
7997;SDS011;4044;49.814;7.828;2022-08-04T14:50:42;2.08;;;2.00;;
7997;SDS011;4044;49.814;7.828;2022-08-04T14:53:13;4.20;;;2.42;;
7997;SDS011;4044;49.814;7.828;2022-08-04T14:55:50;2.22;;;2.00;;
7997;SDS011;4044;49.814;7.828;2022-08-04T14:58:21;4.13;;;2.38;;
7997;SDS011;4044;49.814;7.828;2022-08-04T15:00:48;2.22;;;1.88;;
7997;SDS011;4044;49.814;7.828;2022-08-04T15:03:17;2.35;;;2.13;;
7997;SDS011;4044;49.814;7.828;2022-08-04T15:05:44;7.97;;;2.53;;
7997;SDS011;4044;49.814;7.828;2022-08-04T15:08:14;4.53;;;2.60;;
7997;SDS011;4044;49.814;7.828;2022-08-04T15:10:40;2.20;;;2.10;;
7997;SDS011;4044;49.814;7.828;2022-08-04T15:13:08;2.15;;;2.03;;
7997;SDS011;4044;49.814;7.828;2022-08-04T15:15:37;5.03;;;1.92;;
7997;SDS011;4044;49.814;7.828;2022-08-04T15:18:03;3.53;;;2.00;;
7997;SDS011;4044;49.814;7.828;2022-08-04T15:20:31;2.25;;;1.98;;
7997;SDS011;4044;49.814;7.828;2022-08-04T15:22:57;2.00;;;1.90;;
7997;SDS011;4044;49.814;7.828;2022-08-04T15:25:23;2.67;;;1.88;;
7997;SDS011;4044;49.814;7.828;2022-08-04T15:27:49;2.60;;;1.88;;
7997;SDS011;4044;49.814;7.828;2022-08-04T15:30:16;2.47;;;1.80;;
7997;SDS011;4044;49.814;7.828;2022-08-04T15:32:49;3.28;;;2.25;;
7997;SDS011;4044;49.814;7.828;2022-08-04T15:35:17;2.00;;;1.90;;
7997;SDS011;4044;49.814;7.828;2022-08-04T15:37:58;2.17;;;1.80;;
7997;SDS011;4044;49.814;7.828;2022-08-04T15:43:27;4.93;;;1.90;;
7997;SDS011;4044;49.814;7.828;2022-08-04T15:46:09;1.90;;;1.80;;
7997;SDS011;4044;49.814;7.828;2022-08-04T15:48:36;4.03;;;2.00;;
7997;SDS011;4044;49.814;7.828;2022-08-04T15:51:03;3.45;;;2.00;;
7997;SDS011;4044;49.814;7.828;2022-08-04T15:58:48;2.38;;;1.95;;
7997;SDS011;4044;49.814;7.828;2022-08-04T16:01:16;2.40;;;2.15;;
7997;SDS011;4044;49.814;7.828;2022-08-04T16:03:43;2.33;;;1.90;;
7997;SDS011;4044;49.814;7.828;2022-08-04T16:16:29;2.30;;;2.10;;
7997;SDS011;4044;49.814;7.828;2022-08-04T16:21:48;2.30;;;2.10;;
7997;SDS011;4044;49.814;7.828;2022-08-04T16:27:04;4.80;;;2.08;;
7997;SDS011;4044;49.814;7.828;2022-08-04T16:29:43;2.60;;;2.00;;
7997;SDS011;4044;49.814;7.828;2022-08-04T16:34:42;3.30;;;2.20;;
7997;SDS011;4044;49.814;7.828;2022-08-04T16:37:12;2.83;;;2.10;;
7997;SDS011;4044;49.814;7.828;2022-08-04T16:39:39;3.10;;;2.10;;
7997;SDS011;4044;49.814;7.828;2022-08-04T16:50:11;3.17;;;2.20;;
7997;SDS011;4044;49.814;7.828;2022-08-04T16:52:45;2.35;;;2.20;;
7997;SDS011;4044;49.814;7.828;2022-08-04T16:55:19;2.22;;;2.00;;
7997;SDS011;4044;49.814;7.828;2022-08-04T16:57:46;2.85;;;2.10;;
7997;SDS011;4044;49.814;7.828;2022-08-04T17:00:12;3.83;;;2.38;;
7997;SDS011;4044;49.814;7.828;2022-08-04T17:02:38;2.20;;;2.10;;
7997;SDS011;4044;49.814;7.828;2022-08-04T17:05:04;2.33;;;2.08;;
7997;SDS011;4044;49.814;7.828;2022-08-04T17:07:56;2.80;;;2.03;;
7997;SDS011;4044;49.814;7.828;2022-08-04T17:10:33;2.40;;;2.17;;
7997;SDS011;4044;49.814;7.828;2022-08-04T17:13:02;2.22;;;2.10;;
7997;SDS011;4044;49.814;7.828;2022-08-04T17:15:51;3.63;;;2.53;;
7997;SDS011;4044;49.814;7.828;2022-08-04T17:18:29;2.00;;;2.00;;
7997;SDS011;4044;49.814;7.828;2022-08-04T17:20:57;2.10;;;2.00;;
7997;SDS011;4044;49.814;7.828;2022-08-04T17:23:30;2.70;;;2.10;;
7997;SDS011;4044;49.814;7.828;2022-08-04T17:26:08;2.63;;;2.30;;
7997;SDS011;4044;49.814;7.828;2022-08-04T17:28:36;2.28;;;2.00;;
7997;SDS011;4044;49.814;7.828;2022-08-04T17:31:03;2.25;;;2.10;;
7997;SDS011;4044;49.814;7.828;2022-08-04T17:33:30;2.75;;;1.98;;
7997;SDS011;4044;49.814;7.828;2022-08-04T17:35:57;2.97;;;2.30;;
7997;SDS011;4044;49.814;7.828;2022-08-04T17:38:29;4.60;;;2.20;;
7997;SDS011;4044;49.814;7.828;2022-08-04T17:41:12;2.13;;;1.98;;
7997;SDS011;4044;49.814;7.828;2022-08-04T17:51:36;2.10;;;1.90;;
7997;SDS011;4044;49.814;7.828;2022-08-04T17:54:02;3.60;;;1.88;;
7997;SDS011;4044;49.814;7.828;2022-08-04T17:59:14;2.20;;;2.10;;
7997;SDS011;4044;49.814;7.828;2022-08-04T18:07:10;2.63;;;2.42;;
7997;SDS011;4044;49.814;7.828;2022-08-04T18:09:40;2.47;;;2.28;;
7997;SDS011;4044;49.814;7.828;2022-08-04T18:12:08;3.10;;;2.20;;
7997;SDS011;4044;49.814;7.828;2022-08-04T18:14:37;3.15;;;2.03;;
7997;SDS011;4044;49.814;7.828;2022-08-04T18:17:04;2.10;;;2.00;;
7997;SDS011;4044;49.814;7.828;2022-08-04T18:19:30;2.78;;;1.90;;
7997;SDS011;4044;49.814;7.828;2022-08-04T18:21:56;3.97;;;2.10;;
7997;SDS011;4044;49.814;7.828;2022-08-04T18:24:21;4.07;;;1.90;;
7997;SDS011;4044;49.814;7.828;2022-08-04T18:26:47;2.97;;;1.92;;
7997;SDS011;4044;49.814;7.828;2022-08-04T18:29:13;2.22;;;2.00;;
7997;SDS011;4044;49.814;7.828;2022-08-04T18:31:38;2.13;;;1.80;;
7997;SDS011;4044;49.814;7.828;2022-08-04T18:34:05;2.13;;;1.92;;
7997;SDS011;4044;49.814;7.828;2022-08-04T18:36:31;2.78;;;2.03;;
7997;SDS011;4044;49.814;7.828;2022-08-04T18:38:57;5.75;;;2.22;;
7997;SDS011;4044;49.814;7.828;2022-08-04T18:41:24;7.22;;;2.60;;
7997;SDS011;4044;49.814;7.828;2022-08-04T18:43:53;27.02;;;4.72;;
7997;SDS011;4044;49.814;7.828;2022-08-04T18:46:19;13.93;;;2.90;;
7997;SDS011;4044;49.814;7.828;2022-08-04T18:48:45;3.45;;;2.22;;
7997;SDS011;4044;49.814;7.828;2022-08-04T18:51:10;6.88;;;2.58;;
7997;SDS011;4044;49.814;7.828;2022-08-04T18:53:36;3.33;;;2.20;;
7997;SDS011;4044;49.814;7.828;2022-08-04T18:56:02;7.47;;;1.98;;
7997;SDS011;4044;49.814;7.828;2022-08-04T18:58:28;9.95;;;2.60;;
7997;SDS011;4044;49.814;7.828;2022-08-04T19:00:54;7.90;;;2.78;;
7997;SDS011;4044;49.814;7.828;2022-08-04T19:03:20;9.23;;;2.85;;
7997;SDS011;4044;49.814;7.828;2022-08-04T19:05:46;10.95;;;2.67;;
7997;SDS011;4044;49.814;7.828;2022-08-04T19:08:12;14.60;;;2.83;;
7997;SDS011;4044;49.814;7.828;2022-08-04T19:10:37;5.05;;;2.30;;
7997;SDS011;4044;49.814;7.828;2022-08-04T19:13:03;6.80;;;2.47;;
7997;SDS011;4044;49.814;7.828;2022-08-04T19:15:28;7.55;;;2.63;;
7997;SDS011;4044;49.814;7.828;2022-08-04T19:17:55;4.63;;;2.63;;
7997;SDS011;4044;49.814;7.828;2022-08-04T19:20:21;6.15;;;2.85;;
7997;SDS011;4044;49.814;7.828;2022-08-04T19:22:47;2.60;;;2.40;;
7997;SDS011;4044;49.814;7.828;2022-08-04T19:25:12;8.35;;;2.95;;
7997;SDS011;4044;49.814;7.828;2022-08-04T19:27:38;3.22;;;2.35;;
7997;SDS011;4044;49.814;7.828;2022-08-04T19:30:04;7.28;;;2.72;;
7997;SDS011;4044;49.814;7.828;2022-08-04T19:32:30;7.18;;;2.80;;
7997;SDS011;4044;49.814;7.828;2022-08-04T19:34:55;6.38;;;2.83;;
7997;SDS011;4044;49.814;7.828;2022-08-04T19:37:21;4.43;;;2.63;;
7997;SDS011;4044;49.814;7.828;2022-08-04T19:39:46;9.60;;;2.55;;
7997;SDS011;4044;49.814;7.828;2022-08-04T19:42:12;6.03;;;2.38;;
7997;SDS011;4044;49.814;7.828;2022-08-04T19:44:38;19.77;;;4.22;;
7997;SDS011;4044;49.814;7.828;2022-08-04T19:47:04;21.05;;;4.45;;
7997;SDS011;4044;49.814;7.828;2022-08-04T19:49:29;21.85;;;4.13;;
7997;SDS011;4044;49.814;7.828;2022-08-04T19:51:55;9.85;;;3.22;;
7997;SDS011;4044;49.814;7.828;2022-08-04T19:54:20;6.60;;;2.80;;
7997;SDS011;4044;49.814;7.828;2022-08-04T19:56:46;11.88;;;3.05;;
7997;SDS011;4044;49.814;7.828;2022-08-04T19:59:12;10.18;;;3.22;;
7997;SDS011;4044;49.814;7.828;2022-08-04T20:01:38;7.35;;;2.83;;
7997;SDS011;4044;49.814;7.828;2022-08-04T20:04:04;9.68;;;3.10;;
7997;SDS011;4044;49.814;7.828;2022-08-04T20:06:29;6.95;;;2.70;;
7997;SDS011;4044;49.814;7.828;2022-08-04T20:08:55;5.85;;;2.70;;
7997;SDS011;4044;49.814;7.828;2022-08-04T20:11:20;9.68;;;2.85;;
7997;SDS011;4044;49.814;7.828;2022-08-04T20:13:46;5.65;;;2.95;;